Time;durP1;ratioP1;P1;durP2;ratioP2;P2;SDS_P1;SDS_P2;PMS_P1;PMS_P2;Temp;Humidity;BMP_temperature;BMP_pressure;BME280_temperature;BME280_humidity;BME280_pressure;Samples;Min_cycle;Max_cycle;Signal;HPM_P1;HPM_P2
2023/03/20 00:02:33;;;;;;;7.78;5.70;;;;;;;12.44;75.91;101047.81;10332408;28;96755;-84
2023/03/20 00:07:36;;;;;;;8.57;6.00;;;;;;;12.30;75.96;101044.78;10343823;28;96866;-83
2023/03/20 00:12:40;;;;;;;10.52;5.65;;;;;;;12.18;77.36;101047.84;10374463;28;96678;-84
2023/03/20 00:17:47;;;;;;;7.25;5.60;;;;;;;12.13;77.37;101042.72;10374674;28;96822;-83
2023/03/20 00:22:53;;;;;;;9.50;5.30;;;;;;;12.19;76.87;101044.28;10373707;28;96708;-83
2023/03/20 00:27:58;;;;;;;8.75;6.10;;;;;;;12.33;75.59;101035.00;10374034;28;96746;-83
2023/03/20 00:33:03;;;;;;;8.35;5.13;;;;;;;12.27;76.43;101027.28;10372751;28;97343;-83
2023/03/20 00:38:12;;;;;;;7.38;5.32;;;;;;;12.22;76.21;101029.22;10378424;28;96667;-84
2023/03/20 00:43:41;;;;;;;;;;;;;;;;;;;;;
2023/03/20 01:29:28;;;;;;;7.78;4.88;;;;;;;12.20;76.07;101040.75;10316132;28;96815;-83
2023/03/20 02:44:14;;;;;;;7.85;4.40;;;;;;;11.34;77.76;100985.56;10333511;28;97145;-83
2023/03/20 02:49:31;;;;;;;6.07;4.07;;;;;;;11.19;78.46;100992.16;10335800;28;97191;-83
2023/03/20 02:54:45;;;;;;;6.82;4.00;;;;;;;11.29;77.87;100988.34;10335650;28;96620;-83
2023/03/20 03:00:04;;;;;;;4.88;3.83;;;;;;;11.23;77.62;100977.97;10334829;28;96687;-84
2023/03/20 03:05:13;;;;;;;5.35;4.05;;;;;;;11.24;77.18;100971.81;10335694;28;96832;-83
2023/03/20 03:10:21;;;;;;;7.38;4.45;;;;;;;11.04;78.05;100968.88;10334855;28;96717;-83
2023/03/20 03:15:32;;;;;;;5.47;4.05;;;;;;;11.18;77.78;100966.72;10335200;28;97015;-83
2023/03/20 04:16:24;;;;;;;5.00;3.63;;;;;;;10.53;78.50;100956.38;10316503;28;97062;-83
2023/03/20 04:21:31;;;;;;;4.93;4.03;;;;;;;10.50;78.30;100967.88;10332166;28;96838;-82
2023/03/20 05:27:38;;;;;;;6.53;4.32;;;;;;;10.17;77.20;100981.94;10336215;28;97366;-83
2023/03/20 05:32:43;;;;;;;9.55;4.90;;;;;;;9.96;79.13;100977.22;10336287;28;97893;-84
2023/03/20 05:37:51;;;;;;;7.22;4.90;;;;;;;10.03;78.94;100982.28;10337981;28;96682;-84
2023/03/20 05:42:57;;;;;;;6.28;3.97;;;;;;;10.29;77.24;100986.84;10337885;28;96744;-83
2023/03/20 05:48:04;;;;;;;6.90;4.72;;;;;;;10.03;78.51;100989.31;10338639;28;96744;-83
2023/03/20 05:53:10;;;;;;;;;;;;;;;9.90;79.23;100999.25;10337881;28;97032;-84
2023/03/20 05:58:18;;;;;;;4.75;3.70;;;;;;;10.12;77.68;101004.84;10329030;28;96738;-83
2023/03/20 06:03:22;;;;;;;4.72;3.60;;;;;;;9.90;78.27;101001.06;10335909;28;96792;-84
2023/03/20 06:08:30;;;;;;;5.25;3.63;;;;;;;9.89;78.26;101015.06;10336738;28;96654;-84
2023/03/20 06:13:36;;;;;;;5.20;3.90;;;;;;;9.90;78.00;101017.66;10332962;28;96773;-84
2023/03/20 06:18:48;;;;;;;4.95;3.75;;;;;;;10.09;77.24;101010.19;10336660;28;96701;-83
2023/03/20 06:23:53;;;;;;;5.13;3.97;;;;;;;9.93;78.38;101007.09;10336432;28;96925;-84
2023/03/20 06:29:10;;;;;;;5.18;3.55;;;;;;;9.83;77.93;101010.81;10336326;28;96660;-84
2023/03/20 06:34:17;;;;;;;3.95;3.15;;;;;;;10.19;76.24;101004.63;10335622;28;96667;-84
2023/03/20 06:39:28;;;;;;;6.45;3.58;;;;;;;10.32;76.19;100999.91;10337311;28;96539;-84
2023/03/20 06:44:36;;;;;;;4.05;3.03;;;;;;;10.41;75.87;100999.69;10333656;28;96914;-84
2023/03/20 06:55:04;;;;;;;4.00;3.22;;;;;;;10.61;74.92;100997.34;10334327;28;96722;-84
2023/03/20 07:00:14;;;;;;;3.80;2.80;;;;;;;10.71;74.20;101001.47;10334682;28;96745;-83
2023/03/20 07:05:19;;;;;;;4.35;3.08;;;;;;;10.80;74.19;100995.09;10335133;28;96794;-84
2023/03/20 07:10:36;;;;;;;3.70;2.90;;;;;;;10.86;73.07;100992.25;10335036;28;96780;-83
2023/03/20 07:15:43;;;;;;;3.92;3.00;;;;;;;10.88;73.13;101004.50;10334616;28;96581;-84
2023/03/20 07:21:30;;;;;;;;;;;;;;;;;;;;;
2023/03/20 07:26:41;;;;;;;3.97;2.90;;;;;;;11.39;72.38;101010.84;10334124;28;96879;-84
2023/03/20 07:31:48;;;;;;;3.35;2.60;;;;;;;12.16;70.68;101010.09;10335066;28;96703;-84
2023/03/20 07:36:55;;;;;;;3.25;2.30;;;;;;;12.81;68.52;101016.56;10334583;28;97546;-85
2023/03/20 07:42:16;;;;;;;;;;;;;;;;;;;;;
2023/03/20 07:47:45;;;;;;;3.72;2.28;;;;;;;14.19;64.03;101009.34;10327507;28;96830;-84
2023/03/20 07:52:53;;;;;;;2.92;2.25;;;;;;;14.95;62.11;101018.31;10333501;28;96750;-85
2023/03/20 07:57:59;;;;;;;3.30;2.35;;;;;;;15.30;61.69;101012.25;10333222;28;96823;-85
2023/03/20 08:03:31;;;;;;;2.75;2.45;;;;;;;15.52;60.48;101020.94;10332081;28;96935;-85
2023/03/20 08:08:43;;;;;;;5.78;2.30;;;;;;;17.44;55.76;101017.09;10333364;28;96664;-85
2023/03/20 08:13:50;;;;;;;4.22;2.30;;;;;;;17.74;54.41;101027.84;10333066;28;96897;-85
2023/03/20 11:04:03;;;;;;;3.25;2.95;;;;;;;26.68;32.60;101014.13;10330658;28;96894;-87
2023/03/20 11:09:28;;;;;;;4.15;3.63;;;;;;;26.87;31.70;101008.69;10335065;28;96859;-87
2023/03/20 11:14:59;;;;;;;;;;;;;;;;;;;;;
2023/03/20 13:25:58;;;;;;;;;;;;;;;;;;;;;
2023/03/20 13:31:18;;;;;;;3.55;1.95;;;;;;;29.57;28.34;100839.94;10372704;28;96696;-87
2023/03/20 13:36:34;;;;;;;3.47;2.00;;;;;;;30.01;27.79;100820.44;10372839;28;96764;-85
2023/03/20 13:41:49;;;;;;;2.92;2.08;;;;;;;29.67;28.58;100827.06;10372497;28;96704;-85
2023/03/20 14:49:13;;;;;;;3.25;1.95;;;;;;;26.09;32.65;100752.56;10308176;28;98121;-86
2023/03/20 14:54:29;;;;;;;2.38;1.58;;;;;;;26.01;33.31;100744.34;10289079;28;97173;-84
2023/03/20 14:59:34;;;;;;;3.53;2.13;;;;;;;25.85;33.30;100744.97;10294175;28;96654;-86
2023/03/20 15:04:42;;;;;;;4.32;3.17;;;;;;;24.88;35.07;100738.03;10293928;28;96788;-84
2023/03/20 15:09:50;;;;;;;3.42;2.58;;;;;;;24.98;35.50;100736.19;10294057;28;96673;-86
2023/03/20 15:14:56;;;;;;;2.92;2.20;;;;;;;24.35;36.13;100722.19;10293495;28;96810;-84
2023/03/20 15:20:22;;;;;;;4.57;2.13;;;;;;;24.32;37.32;100724.28;10274917;28;97510;-86
2023/03/20 15:25:45;;;;;;;;;;;;;;;;;;;;;
2023/03/20 15:30:50;;;;;;;2.38;1.80;;;;;;;23.86;37.41;100703.25;10294086;28;96723;-86
2023/03/20 15:35:57;;;;;;;3.38;1.83;;;;;;;23.53;37.96;100704.31;10293154;28;97107;-84
2023/03/20 15:41:12;;;;;;;2.40;1.70;;;;;;;23.23;37.58;100701.53;10292856;28;96753;-83
2023/03/20 15:46:19;;;;;;;3.33;1.80;;;;;;;23.02;38.23;100703.38;10291668;28;97199;-84
2023/03/20 15:51:27;;;;;;;3.75;1.75;;;;;;;23.40;38.34;100698.31;10292328;28;96869;-84
2023/03/20 15:56:42;;;;;;;3.42;1.63;;;;;;;23.03;37.72;100683.59;10292252;28;97119;-84
2023/03/20 16:01:57;;;;;;;3.85;2.00;;;;;;;22.80;39.05;100692.72;10292038;28;96901;-85
2023/03/20 16:07:02;;;;;;;3.03;1.48;;;;;;;22.55;38.38;100696.56;10290904;28;96699;-83
2023/03/20 16:12:18;;;;;;;3.10;1.77;;;;;;;22.45;39.40;100692.06;10292211;28;97210;-85
2023/03/20 16:17:27;;;;;;;3.60;1.90;;;;;;;22.72;40.32;100702.34;10291924;28;97336;-84
2023/03/20 16:22:33;;;;;;;3.00;1.80;;;;;;;22.43;39.87;100689.50;10292365;28;96870;-85
2023/03/20 16:27:41;;;;;;;3.15;2.15;;;;;;;22.50;40.54;100693.41;10291534;28;96824;-84
2023/03/20 16:33:00;;;;;;;3.85;2.13;;;;;;;22.49;40.67;100689.00;10291947;28;96679;-85
2023/03/20 16:38:17;;;;;;;3.22;1.85;;;;;;;22.12;41.31;100695.66;10291069;28;96787;-83
2023/03/20 16:43:31;;;;;;;3.10;1.80;;;;;;;22.20;41.59;100689.66;10291802;28;96913;-86
2023/03/20 16:48:38;;;;;;;2.83;1.75;;;;;;;22.10;40.96;100691.38;10291340;28;96919;-83
2023/03/20 16:53:49;;;;;;;3.85;2.42;;;;;;;21.74;41.63;100687.09;10311278;28;99209;-84
2023/03/20 16:58:58;;;;;;;7.60;2.70;;;;;;;21.41;42.33;100670.97;10330753;28;97453;-83
2023/03/20 17:04:16;;;;;;;8.23;4.35;;;;;;;21.16;44.15;100679.16;10290793;28;97271;-83
2023/03/20 17:09:28;;;;;;;5.05;3.60;;;;;;;21.07;44.91;100690.56;10290914;28;96549;-84
2023/03/20 17:14:34;;;;;;;6.13;3.40;;;;;;;20.89;45.19;100702.66;10291374;28;96748;-83
2023/03/20 17:19:44;;;;;;;8.55;3.80;;;;;;;20.89;45.01;100708.00;10293895;28;96605;-82
2023/03/20 17:24:49;;;;;;;4.80;2.60;;;;;;;20.63;43.60;100711.75;10297057;28;96655;-83
2023/03/20 17:29:56;;;;;;;5.18;3.20;;;;;;;20.57;42.51;100709.53;10296375;28;97121;-85
2023/03/20 17:35:02;;;;;;;6.70;3.42;;;;;;;20.51;42.41;100715.31;10296930;28;96834;-84
2023/03/20 17:40:06;;;;;;;6.72;4.25;;;;;;;20.45;42.68;100721.09;10297069;28;96633;-86
2023/03/20 17:45:14;;;;;;;6.25;4.10;;;;;;;20.23;42.77;100724.47;10296834;28;96681;-84
2023/03/20 17:50:25;;;;;;;4.82;3.08;;;;;;;20.11;42.12;100750.25;10295667;28;96843;-83
2023/03/20 17:55:34;;;;;;;9.93;2.67;;;;;;;19.96;40.37;100745.13;10296148;28;96720;-84
2023/03/20 18:00:56;;;;;;;5.13;2.20;;;;;;;19.85;40.96;100748.56;10296124;28;96615;-84
2023/03/20 18:06:06;;;;;;;2.33;1.48;;;;;;;19.63;41.24;100750.97;10296948;28;96771;-82
2023/03/20 18:11:09;;;;;;;4.32;1.77;;;;;;;19.49;41.93;100755.56;10295839;28;96813;-85
2023/03/20 18:16:18;;;;;;;5.15;2.30;;;;;;;19.28;43.50;100748.00;10295321;28;97721;-86
2023/03/20 18:21:22;;;;;;;6.38;3.70;;;;;;;19.13;45.32;100750.84;10294176;28;96797;-82
2023/03/20 18:26:27;;;;;;;4.10;2.58;;;;;;;18.95;47.25;100744.09;10294936;28;97584;-84
2023/03/20 18:31:31;;;;;;;6.70;4.90;;;;;;;18.68;50.58;100753.91;10294315;28;96652;-85
2023/03/20 18:36:41;;;;;;;10.07;6.18;;;;;;;18.47;52.51;100764.13;10295595;28;97019;-85
2023/03/20 18:41:47;;;;;;;12.65;7.43;;;;;;;18.24;54.00;100783.34;10294832;28;96773;-86
2023/03/20 18:46:53;;;;;;;11.10;7.00;;;;;;;18.08;55.38;100775.47;10294732;28;96832;-86
2023/03/20 18:51:57;;;;;;;11.23;6.47;;;;;;;17.91;56.42;100790.75;10293711;28;96885;-86
2023/03/20 18:57:05;;;;;;;9.85;5.53;;;;;;;17.73;57.92;100784.75;10295509;28;97030;-84
2023/03/20 19:02:27;;;;;;;7.63;5.13;;;;;;;17.53;59.67;100794.88;10286252;28;96712;-85
2023/03/20 19:07:34;;;;;;;6.57;4.60;;;;;;;17.42;59.91;100797.28;10294059;28;97129;-85
2023/03/20 19:12:38;;;;;;;;;;;;;;;17.23;61.14;100802.81;10293657;28;96818;-86
2023/03/20 19:17:44;;;;;;;;;;;;;;;17.04;62.28;100797.72;10294219;28;96766;-85
2023/03/20 20:02:06;;;;;;;10.88;5.70;;;;;;;16.53;61.94;100815.75;10290407;28;96976;-86
2023/03/20 20:07:15;;;;;;;9.32;5.15;;;;;;;16.45;62.46;100817.94;10291715;28;96879;-85
2023/03/20 20:12:39;;;;;;;9.50;5.43;;;;;;;16.43;62.56;100822.50;10292859;28;96658;-85
2023/03/20 20:17:46;;;;;;;8.63;5.77;;;;;;;16.28;62.94;100828.59;10292204;28;96737;-85
2023/03/20 20:22:52;;;;;;;12.93;6.63;;;;;;;16.14;63.90;100839.09;10291832;28;96706;-85
2023/03/20 20:28:16;;;;;;;12.82;7.25;;;;;;;15.96;64.51;100850.69;10291733;28;96618;-86
2023/03/20 20:33:35;;;;;;;9.13;5.40;;;;;;;15.89;64.46;100861.59;10291630;28;96658;-85
2023/03/20 20:38:38;;;;;;;7.03;4.15;;;;;;;15.78;64.80;100861.31;10289571;28;97912;-86
2023/03/20 20:43:55;;;;;;;10.37;5.90;;;;;;;15.60;65.80;100869.34;10291247;28;97284;-85
2023/03/20 20:49:34;;;;;;;8.73;5.40;;;;;;;15.53;66.86;100874.09;10291280;28;96703;-86
2023/03/20 20:54:40;;;;;;;11.32;6.05;;;;;;;15.36;67.31;100881.16;10294243;28;96628;-86
2023/03/20 20:59:45;;;;;;;9.50;6.25;;;;;;;15.33;67.30;100891.94;10296836;28;96901;-86
2023/03/20 21:04:49;;;;;;;9.00;5.93;;;;;;;15.34;66.85;100898.94;10298170;28;96551;-85
2023/03/20 21:09:54;;;;;;;9.77;7.05;;;;;;;15.34;67.14;100909.53;10298313;28;96608;-85
2023/03/20 21:15:08;;;;;;;;;;;;;;;;;;;;;
2023/03/20 21:20:18;;;;;;;9.20;6.25;;;;;;;15.46;66.90;100920.41;10295950;28;96621;-85
2023/03/20 21:25:26;;;;;;;8.48;6.20;;;;;;;15.38;67.22;100913.78;10297280;28;96683;-86
2023/03/20 21:30:44;;;;;;;8.95;5.75;;;;;;;15.22;67.63;100921.59;10297570;28;97246;-85
2023/03/20 21:36:15;;;;;;;9.32;6.10;;;;;;;15.45;67.17;100931.13;10256870;28;96779;-85
2023/03/20 23:41:28;;;;;;;11.80;8.20;;;;;;;13.42;71.45;100926.09;10312613;28;97331;-84
2023/03/20 23:46:51;;;;;;;12.02;9.50;;;;;;;13.40;71.62;100924.44;10368916;28;97692;-84
2023/03/20 23:51:54;;;;;;;13.07;9.32;;;;;;;13.54;71.21;100927.38;10375592;28;97634;-85
2023/03/20 23:57:06;;;;;;;11.27;8.63;;;;;;;13.55;71.16;100921.19;10375246;28;96594;-84
